sensor_id;sensor_type;location;lat;lon;timestamp;temperature;humidity
43049;DHT22;28673;44.412;11.918;2023-07-30T00:02:20;24.60;86.00
43049;DHT22;28673;44.412;11.918;2023-07-30T00:04:46;24.60;86.10
43049;DHT22;28673;44.412;11.918;2023-07-30T00:07:12;24.60;85.90
43049;DHT22;28673;44.412;11.918;2023-07-30T00:09:39;24.60;85.80
43049;DHT22;28673;44.412;11.918;2023-07-30T00:12:05;24.60;85.70
43049;DHT22;28673;44.412;11.918;2023-07-30T00:14:32;24.60;85.60
43049;DHT22;28673;44.412;11.918;2023-07-30T00:16:58;24.60;85.50
43049;DHT22;28673;44.412;11.918;2023-07-30T00:19:25;24.60;85.50
43049;DHT22;28673;44.412;11.918;2023-07-30T00:21:51;24.60;85.40
43049;DHT22;28673;44.412;11.918;2023-07-30T00:24:16;24.60;85.30
43049;DHT22;28673;44.412;11.918;2023-07-30T00:26:42;24.70;85.30
43049;DHT22;28673;44.412;11.918;2023-07-30T00:29:08;24.70;85.30
43049;DHT22;28673;44.412;11.918;2023-07-30T00:31:34;24.70;85.40
43049;DHT22;28673;44.412;11.918;2023-07-30T00:34:00;24.70;85.30
43049;DHT22;28673;44.412;11.918;2023-07-30T00:36:26;24.80;85.40
43049;DHT22;28673;44.412;11.918;2023-07-30T00:38:52;24.80;85.50
43049;DHT22;28673;44.412;11.918;2023-07-30T00:41:18;24.80;85.50
43049;DHT22;28673;44.412;11.918;2023-07-30T00:43:44;24.80;85.50
43049;DHT22;28673;44.412;11.918;2023-07-30T00:46:11;24.80;85.50
43049;DHT22;28673;44.412;11.918;2023-07-30T00:48:38;24.80;85.50
43049;DHT22;28673;44.412;11.918;2023-07-30T00:51:06;24.80;85.50
43049;DHT22;28673;44.412;11.918;2023-07-30T00:53:33;24.90;85.50
43049;DHT22;28673;44.412;11.918;2023-07-30T00:55:59;24.90;85.40
43049;DHT22;28673;44.412;11.918;2023-07-30T00:58:26;24.90;85.30
43049;DHT22;28673;44.412;11.918;2023-07-30T01:00:53;25.00;85.90
43049;DHT22;28673;44.412;11.918;2023-07-30T01:03:20;25.00;85.30
43049;DHT22;28673;44.412;11.918;2023-07-30T01:05:46;25.00;85.20
43049;DHT22;28673;44.412;11.918;2023-07-30T01:08:12;25.00;85.10
43049;DHT22;28673;44.412;11.918;2023-07-30T01:10:38;25.00;85.10
43049;DHT22;28673;44.412;11.918;2023-07-30T01:13:08;25.00;85.10
43049;DHT22;28673;44.412;11.918;2023-07-30T01:15:35;25.00;85.10
43049;DHT22;28673;44.412;11.918;2023-07-30T01:18:01;25.00;85.10
43049;DHT22;28673;44.412;11.918;2023-07-30T01:20:31;25.10;85.10
43049;DHT22;28673;44.412;11.918;2023-07-30T01:22:58;25.10;85.20
43049;DHT22;28673;44.412;11.918;2023-07-30T01:25:28;25.10;85.20
43049;DHT22;28673;44.412;11.918;2023-07-30T01:27:56;25.10;85.10
43049;DHT22;28673;44.412;11.918;2023-07-30T01:30:30;25.10;85.10
43049;DHT22;28673;44.412;11.918;2023-07-30T01:32:58;25.20;85.20
43049;DHT22;28673;44.412;11.918;2023-07-30T01:35:28;25.20;85.10
43049;DHT22;28673;44.412;11.918;2023-07-30T01:37:55;25.20;85.20
43049;DHT22;28673;44.412;11.918;2023-07-30T01:40:21;25.20;85.10
43049;DHT22;28673;44.412;11.918;2023-07-30T01:42:51;25.20;85.10
43049;DHT22;28673;44.412;11.918;2023-07-30T01:45:17;25.20;85.10
43049;DHT22;28673;44.412;11.918;2023-07-30T01:47:44;25.20;85.10
43049;DHT22;28673;44.412;11.918;2023-07-30T01:50:12;25.20;85.00
43049;DHT22;28673;44.412;11.918;2023-07-30T01:52:41;25.20;85.10
43049;DHT22;28673;44.412;11.918;2023-07-30T01:55:07;25.20;85.00
43049;DHT22;28673;44.412;11.918;2023-07-30T01:57:33;25.20;85.00
43049;DHT22;28673;44.412;11.918;2023-07-30T02:00:00;25.20;85.00
43049;DHT22;28673;44.412;11.918;2023-07-30T02:02:35;25.30;85.10
43049;DHT22;28673;44.412;11.918;2023-07-30T02:05:04;25.20;85.00
43049;DHT22;28673;44.412;11.918;2023-07-30T02:07:30;25.30;85.10
43049;DHT22;28673;44.412;11.918;2023-07-30T02:09:57;25.30;85.00
43049;DHT22;28673;44.412;11.918;2023-07-30T02:12:23;25.30;85.10
43049;DHT22;28673;44.412;11.918;2023-07-30T02:14:49;25.40;85.20
43049;DHT22;28673;44.412;11.918;2023-07-30T02:17:15;25.30;85.20
43049;DHT22;28673;44.412;11.918;2023-07-30T02:19:47;25.40;85.30
43049;DHT22;28673;44.412;11.918;2023-07-30T02:22:13;25.30;85.30
43049;DHT22;28673;44.412;11.918;2023-07-30T02:24:42;25.30;85.40
43049;DHT22;28673;44.412;11.918;2023-07-30T02:27:08;25.30;85.60
43049;DHT22;28673;44.412;11.918;2023-07-30T02:29:37;25.30;85.70
43049;DHT22;28673;44.412;11.918;2023-07-30T02:32:03;25.30;85.70
43049;DHT22;28673;44.412;11.918;2023-07-30T02:34:31;25.30;85.90
43049;DHT22;28673;44.412;11.918;2023-07-30T02:36:57;25.30;86.20
43049;DHT22;28673;44.412;11.918;2023-07-30T02:39:23;25.20;86.80
43049;DHT22;28673;44.412;11.918;2023-07-30T02:41:49;25.20;86.60
43049;DHT22;28673;44.412;11.918;2023-07-30T02:44:15;25.20;86.70
43049;DHT22;28673;44.412;11.918;2023-07-30T02:46:41;25.20;86.80
43049;DHT22;28673;44.412;11.918;2023-07-30T02:49:07;25.20;87.00
43049;DHT22;28673;44.412;11.918;2023-07-30T02:51:34;25.20;87.30
43049;DHT22;28673;44.412;11.918;2023-07-30T02:54:08;25.20;87.60
43049;DHT22;28673;44.412;11.918;2023-07-30T02:56:35;25.10;87.70
43049;DHT22;28673;44.412;11.918;2023-07-30T02:59:01;25.10;87.70
43049;DHT22;28673;44.412;11.918;2023-07-30T03:01:27;25.00;87.80
43049;DHT22;28673;44.412;11.918;2023-07-30T03:03:56;25.00;88.20
43049;DHT22;28673;44.412;11.918;2023-07-30T03:06:25;25.00;88.30
43049;DHT22;28673;44.412;11.918;2023-07-30T03:08:51;25.00;88.40
43049;DHT22;28673;44.412;11.918;2023-07-30T03:11:18;25.00;88.60
43049;DHT22;28673;44.412;11.918;2023-07-30T03:13:45;24.90;88.70
43049;DHT22;28673;44.412;11.918;2023-07-30T03:16:11;24.90;88.90
43049;DHT22;28673;44.412;11.918;2023-07-30T03:18:37;24.90;89.20
43049;DHT22;28673;44.412;11.918;2023-07-30T03:21:05;24.80;89.40
43049;DHT22;28673;44.412;11.918;2023-07-30T03:23:34;24.80;89.50
43049;DHT22;28673;44.412;11.918;2023-07-30T03:26:00;24.70;89.50
43049;DHT22;28673;44.412;11.918;2023-07-30T03:28:26;24.70;89.70
43049;DHT22;28673;44.412;11.918;2023-07-30T03:30:54;24.70;90.00
43049;DHT22;28673;44.412;11.918;2023-07-30T03:33:20;24.70;90.00
43049;DHT22;28673;44.412;11.918;2023-07-30T03:35:52;24.60;90.10
43049;DHT22;28673;44.412;11.918;2023-07-30T03:38:22;24.60;90.20
43049;DHT22;28673;44.412;11.918;2023-07-30T03:40:48;24.60;90.30
43049;DHT22;28673;44.412;11.918;2023-07-30T03:43:14;24.60;90.30
43049;DHT22;28673;44.412;11.918;2023-07-30T03:45:40;24.60;90.30
43049;DHT22;28673;44.412;11.918;2023-07-30T03:48:13;24.60;90.40
43049;DHT22;28673;44.412;11.918;2023-07-30T03:50:40;24.60;90.50
43049;DHT22;28673;44.412;11.918;2023-07-30T03:53:11;24.60;90.50
43049;DHT22;28673;44.412;11.918;2023-07-30T03:55:37;24.50;90.60
43049;DHT22;28673;44.412;11.918;2023-07-30T03:58:03;24.50;90.60
43049;DHT22;28673;44.412;11.918;2023-07-30T04:00:33;24.40;90.70
43049;DHT22;28673;44.412;11.918;2023-07-30T04:02:59;24.40;90.70
43049;DHT22;28673;44.412;11.918;2023-07-30T04:05:28;24.40;90.90
43049;DHT22;28673;44.412;11.918;2023-07-30T04:07:55;24.30;90.80
43049;DHT22;28673;44.412;11.918;2023-07-30T04:10:22;24.30;91.20
43049;DHT22;28673;44.412;11.918;2023-07-30T04:12:48;24.30;90.80
43049;DHT22;28673;44.412;11.918;2023-07-30T04:15:15;24.30;90.80
43049;DHT22;28673;44.412;11.918;2023-07-30T04:17:49;24.20;90.90
43049;DHT22;28673;44.412;11.918;2023-07-30T04:20:23;24.20;91.00
43049;DHT22;28673;44.412;11.918;2023-07-30T04:22:49;24.20;91.20
43049;DHT22;28673;44.412;11.918;2023-07-30T04:25:17;24.10;91.20
43049;DHT22;28673;44.412;11.918;2023-07-30T04:27:49;24.10;91.30
43049;DHT22;28673;44.412;11.918;2023-07-30T04:30:19;24.10;91.40
43049;DHT22;28673;44.412;11.918;2023-07-30T04:32:49;24.00;91.40
43049;DHT22;28673;44.412;11.918;2023-07-30T04:35:16;24.10;91.50
43049;DHT22;28673;44.412;11.918;2023-07-30T04:37:44;24.00;91.50
43049;DHT22;28673;44.412;11.918;2023-07-30T04:40:13;24.00;91.40
43049;DHT22;28673;44.412;11.918;2023-07-30T04:42:41;24.00;91.50
43049;DHT22;28673;44.412;11.918;2023-07-30T04:45:11;24.00;91.50
43049;DHT22;28673;44.412;11.918;2023-07-30T04:47:41;24.00;91.50
43049;DHT22;28673;44.412;11.918;2023-07-30T04:50:07;24.00;91.40
43049;DHT22;28673;44.412;11.918;2023-07-30T04:52:33;24.00;91.40
43049;DHT22;28673;44.412;11.918;2023-07-30T04:54:59;24.00;91.50
43049;DHT22;28673;44.412;11.918;2023-07-30T04:57:25;24.10;91.50
43049;DHT22;28673;44.412;11.918;2023-07-30T04:59:52;24.10;91.50
43049;DHT22;28673;44.412;11.918;2023-07-30T05:02:18;24.10;91.50
43049;DHT22;28673;44.412;11.918;2023-07-30T05:04:45;24.10;91.50
43049;DHT22;28673;44.412;11.918;2023-07-30T05:07:11;24.20;91.50
43049;DHT22;28673;44.412;11.918;2023-07-30T05:09:39;24.20;91.50
43049;DHT22;28673;44.412;11.918;2023-07-30T05:12:10;24.20;91.60
43049;DHT22;28673;44.412;11.918;2023-07-30T05:14:36;24.30;91.60
43049;DHT22;28673;44.412;11.918;2023-07-30T05:17:07;24.30;91.60
43049;DHT22;28673;44.412;11.918;2023-07-30T05:19:36;24.40;91.70
43049;DHT22;28673;44.412;11.918;2023-07-30T05:22:04;24.40;92.10
43049;DHT22;28673;44.412;11.918;2023-07-30T05:24:33;24.50;92.00
43049;DHT22;28673;44.412;11.918;2023-07-30T05:27:02;24.50;92.00
43049;DHT22;28673;44.412;11.918;2023-07-30T05:29:37;24.60;92.30
43049;DHT22;28673;44.412;11.918;2023-07-30T05:32:03;24.70;92.50
43049;DHT22;28673;44.412;11.918;2023-07-30T05:34:34;24.80;92.70
43049;DHT22;28673;44.412;11.918;2023-07-30T05:37:03;24.80;92.70
43049;DHT22;28673;44.412;11.918;2023-07-30T05:39:32;24.90;92.80
43049;DHT22;28673;44.412;11.918;2023-07-30T05:41:58;24.90;93.00
43049;DHT22;28673;44.412;11.918;2023-07-30T05:44:24;25.00;93.20
43049;DHT22;28673;44.412;11.918;2023-07-30T05:46:49;25.00;93.20
43049;DHT22;28673;44.412;11.918;2023-07-30T05:49:15;25.10;93.40
43049;DHT22;28673;44.412;11.918;2023-07-30T05:51:41;25.10;93.60
43049;DHT22;28673;44.412;11.918;2023-07-30T05:54:07;25.20;93.60
43049;DHT22;28673;44.412;11.918;2023-07-30T05:56:33;25.20;93.40
43049;DHT22;28673;44.412;11.918;2023-07-30T05:58:58;25.30;93.50
43049;DHT22;28673;44.412;11.918;2023-07-30T06:01:24;25.40;93.50
43049;DHT22;28673;44.412;11.918;2023-07-30T06:03:50;25.50;93.50
43049;DHT22;28673;44.412;11.918;2023-07-30T06:06:16;25.60;93.40
43049;DHT22;28673;44.412;11.918;2023-07-30T06:08:42;25.70;93.40
43049;DHT22;28673;44.412;11.918;2023-07-30T06:11:08;25.80;93.40
43049;DHT22;28673;44.412;11.918;2023-07-30T06:13:34;25.90;93.50
43049;DHT22;28673;44.412;11.918;2023-07-30T06:16:00;26.00;93.40
43049;DHT22;28673;44.412;11.918;2023-07-30T06:18:25;26.10;93.30
43049;DHT22;28673;44.412;11.918;2023-07-30T06:20:51;26.10;93.20
43049;DHT22;28673;44.412;11.918;2023-07-30T06:23:17;26.20;93.10
43049;DHT22;28673;44.412;11.918;2023-07-30T06:25:44;26.40;93.10
43049;DHT22;28673;44.412;11.918;2023-07-30T06:28:10;26.50;93.10
43049;DHT22;28673;44.412;11.918;2023-07-30T06:30:35;26.50;93.00
43049;DHT22;28673;44.412;11.918;2023-07-30T06:33:02;26.60;92.90
43049;DHT22;28673;44.412;11.918;2023-07-30T06:35:28;26.70;92.80
43049;DHT22;28673;44.412;11.918;2023-07-30T06:37:54;26.80;92.70
43049;DHT22;28673;44.412;11.918;2023-07-30T06:40:19;26.80;92.50
43049;DHT22;28673;44.412;11.918;2023-07-30T06:42:45;26.90;92.40
43049;DHT22;28673;44.412;11.918;2023-07-30T06:45:11;27.10;92.30
43049;DHT22;28673;44.412;11.918;2023-07-30T06:47:37;27.10;92.40
43049;DHT22;28673;44.412;11.918;2023-07-30T06:50:04;27.20;92.00
43049;DHT22;28673;44.412;11.918;2023-07-30T06:52:30;27.40;92.00
43049;DHT22;28673;44.412;11.918;2023-07-30T06:54:56;27.50;91.80
43049;DHT22;28673;44.412;11.918;2023-07-30T06:57:22;27.70;91.60
43049;DHT22;28673;44.412;11.918;2023-07-30T06:59:48;27.90;91.40
43049;DHT22;28673;44.412;11.918;2023-07-30T07:02:14;28.10;91.20
43049;DHT22;28673;44.412;11.918;2023-07-30T07:04:39;28.20;91.00
43049;DHT22;28673;44.412;11.918;2023-07-30T07:07:05;28.30;90.80
43049;DHT22;28673;44.412;11.918;2023-07-30T07:09:31;28.50;90.60
43049;DHT22;28673;44.412;11.918;2023-07-30T07:11:58;28.60;90.40
43049;DHT22;28673;44.412;11.918;2023-07-30T07:14:25;28.80;90.30
43049;DHT22;28673;44.412;11.918;2023-07-30T07:16:53;28.90;90.10
43049;DHT22;28673;44.412;11.918;2023-07-30T07:19:20;29.10;89.90
43049;DHT22;28673;44.412;11.918;2023-07-30T07:21:46;29.20;89.40
43049;DHT22;28673;44.412;11.918;2023-07-30T07:24:11;29.40;89.20
43049;DHT22;28673;44.412;11.918;2023-07-30T07:26:37;29.50;88.80
43049;DHT22;28673;44.412;11.918;2023-07-30T07:29:03;29.60;88.70
43049;DHT22;28673;44.412;11.918;2023-07-30T07:31:29;29.80;88.50
43049;DHT22;28673;44.412;11.918;2023-07-30T07:33:55;29.90;88.20
43049;DHT22;28673;44.412;11.918;2023-07-30T07:36:21;30.10;87.80
43049;DHT22;28673;44.412;11.918;2023-07-30T07:38:47;30.30;87.60
43049;DHT22;28673;44.412;11.918;2023-07-30T07:41:16;30.40;87.40
43049;DHT22;28673;44.412;11.918;2023-07-30T07:43:43;30.60;87.10
43049;DHT22;28673;44.412;11.918;2023-07-30T07:46:09;30.70;86.60
43049;DHT22;28673;44.412;11.918;2023-07-30T07:48:40;31.00;86.40
43049;DHT22;28673;44.412;11.918;2023-07-30T07:51:06;31.20;86.20
43049;DHT22;28673;44.412;11.918;2023-07-30T07:53:32;31.30;85.40
43049;DHT22;28673;44.412;11.918;2023-07-30T07:55:58;31.40;85.30
43049;DHT22;28673;44.412;11.918;2023-07-30T07:58:24;31.50;84.80
43049;DHT22;28673;44.412;11.918;2023-07-30T08:00:50;31.60;84.50
43049;DHT22;28673;44.412;11.918;2023-07-30T08:03:19;31.80;84.50
43049;DHT22;28673;44.412;11.918;2023-07-30T08:05:45;31.90;83.80
43049;DHT22;28673;44.412;11.918;2023-07-30T08:08:11;32.10;83.70
43049;DHT22;28673;44.412;11.918;2023-07-30T08:10:41;32.30;83.50
43049;DHT22;28673;44.412;11.918;2023-07-30T08:13:12;32.50;83.20
43049;DHT22;28673;44.412;11.918;2023-07-30T08:15:38;32.60;82.70
43049;DHT22;28673;44.412;11.918;2023-07-30T08:18:04;32.80;82.40
43049;DHT22;28673;44.412;11.918;2023-07-30T08:20:30;33.00;82.20
43049;DHT22;28673;44.412;11.918;2023-07-30T08:22:56;33.10;81.70
43049;DHT22;28673;44.412;11.918;2023-07-30T08:25:22;33.30;81.40
43049;DHT22;28673;44.412;11.918;2023-07-30T08:27:48;33.50;80.80
43049;DHT22;28673;44.412;11.918;2023-07-30T08:30:14;33.70;80.80
43049;DHT22;28673;44.412;11.918;2023-07-30T08:32:40;34.00;80.40
43049;DHT22;28673;44.412;11.918;2023-07-30T08:35:07;34.20;79.70
43049;DHT22;28673;44.412;11.918;2023-07-30T08:37:33;34.20;79.40
43049;DHT22;28673;44.412;11.918;2023-07-30T08:39:59;34.30;79.30
43049;DHT22;28673;44.412;11.918;2023-07-30T08:42:25;34.50;78.90
43049;DHT22;28673;44.412;11.918;2023-07-30T08:44:51;34.70;78.50
43049;DHT22;28673;44.412;11.918;2023-07-30T08:47:17;35.00;78.30
43049;DHT22;28673;44.412;11.918;2023-07-30T08:49:43;35.20;77.80
43049;DHT22;28673;44.412;11.918;2023-07-30T08:52:10;35.30;77.30
43049;DHT22;28673;44.412;11.918;2023-07-30T08:54:38;35.40;76.60
43049;DHT22;28673;44.412;11.918;2023-07-30T08:57:04;35.50;76.20
43049;DHT22;28673;44.412;11.918;2023-07-30T08:59:54;35.70;76.50
43049;DHT22;28673;44.412;11.918;2023-07-30T09:02:26;36.00;75.70
43049;DHT22;28673;44.412;11.918;2023-07-30T09:04:58;36.20;75.70
43049;DHT22;28673;44.412;11.918;2023-07-30T09:07:25;36.30;75.00
43049;DHT22;28673;44.412;11.918;2023-07-30T09:09:51;36.40;74.90
43049;DHT22;28673;44.412;11.918;2023-07-30T09:12:17;36.50;75.00
43049;DHT22;28673;44.412;11.918;2023-07-30T09:14:43;36.60;74.50
43049;DHT22;28673;44.412;11.918;2023-07-30T09:17:16;36.90;74.20
43049;DHT22;28673;44.412;11.918;2023-07-30T09:19:42;37.00;73.90
43049;DHT22;28673;44.412;11.918;2023-07-30T09:22:08;36.90;73.70
43049;DHT22;28673;44.412;11.918;2023-07-30T09:24:33;37.00;73.60
43049;DHT22;28673;44.412;11.918;2023-07-30T09:27:03;37.10;73.40
43049;DHT22;28673;44.412;11.918;2023-07-30T09:29:29;37.20;73.00
43049;DHT22;28673;44.412;11.918;2023-07-30T09:31:55;37.40;72.90
43049;DHT22;28673;44.412;11.918;2023-07-30T09:34:24;37.60;73.10
43049;DHT22;28673;44.412;11.918;2023-07-30T09:36:52;37.60;70.40
43049;DHT22;28673;44.412;11.918;2023-07-30T09:39:26;37.30;72.10
43049;DHT22;28673;44.412;11.918;2023-07-30T09:41:59;37.20;71.20
43049;DHT22;28673;44.412;11.918;2023-07-30T09:44:25;37.10;71.80
43049;DHT22;28673;44.412;11.918;2023-07-30T09:46:51;37.20;71.90
43049;DHT22;28673;44.412;11.918;2023-07-30T09:49:18;37.30;72.00
43049;DHT22;28673;44.412;11.918;2023-07-30T09:51:44;37.40;71.10
43049;DHT22;28673;44.412;11.918;2023-07-30T09:54:14;37.40;70.90
43049;DHT22;28673;44.412;11.918;2023-07-30T09:56:41;37.50;70.80
43049;DHT22;28673;44.412;11.918;2023-07-30T09:59:09;37.70;70.90
43049;DHT22;28673;44.412;11.918;2023-07-30T10:01:53;37.80;70.10
43049;DHT22;28673;44.412;11.918;2023-07-30T10:04:22;38.10;69.60
43049;DHT22;28673;44.412;11.918;2023-07-30T10:06:56;38.10;69.80
43049;DHT22;28673;44.412;11.918;2023-07-30T10:09:27;38.20;69.10
43049;DHT22;28673;44.412;11.918;2023-07-30T10:11:56;38.30;69.20
43049;DHT22;28673;44.412;11.918;2023-07-30T10:14:24;38.30;69.00
43049;DHT22;28673;44.412;11.918;2023-07-30T10:16:55;38.50;68.90
43049;DHT22;28673;44.412;11.918;2023-07-30T10:19:28;38.60;68.40
43049;DHT22;28673;44.412;11.918;2023-07-30T10:25:04;38.90;67.70
43049;DHT22;28673;44.412;11.918;2023-07-30T10:27:41;39.10;67.00
43049;DHT22;28673;44.412;11.918;2023-07-30T10:30:14;39.40;67.60
43049;DHT22;28673;44.412;11.918;2023-07-30T10:33:04;39.50;67.30
43049;DHT22;28673;44.412;11.918;2023-07-30T10:35:42;39.40;67.20
43049;DHT22;28673;44.412;11.918;2023-07-30T10:38:27;39.50;66.50
43049;DHT22;28673;44.412;11.918;2023-07-30T10:43:30;40.00;64.90
43049;DHT22;28673;44.412;11.918;2023-07-30T10:45:56;40.10;66.00
43049;DHT22;28673;44.412;11.918;2023-07-30T10:48:36;40.20;65.40
43049;DHT22;28673;44.412;11.918;2023-07-30T10:51:13;40.30;65.30
43049;DHT22;28673;44.412;11.918;2023-07-30T10:53:46;40.50;65.10
43049;DHT22;28673;44.412;11.918;2023-07-30T10:56:13;40.50;65.10
43049;DHT22;28673;44.412;11.918;2023-07-30T10:58:43;40.70;65.10
43049;DHT22;28673;44.412;11.918;2023-07-30T11:01:09;41.00;64.30
43049;DHT22;28673;44.412;11.918;2023-07-30T11:03:36;41.30;64.50
43049;DHT22;28673;44.412;11.918;2023-07-30T11:06:04;41.60;63.80
43049;DHT22;28673;44.412;11.918;2023-07-30T11:08:38;41.80;63.60
43049;DHT22;28673;44.412;11.918;2023-07-30T11:11:05;42.00;61.90
43049;DHT22;28673;44.412;11.918;2023-07-30T11:13:39;42.20;62.70
43049;DHT22;28673;44.412;11.918;2023-07-30T11:16:06;42.20;62.10
43049;DHT22;28673;44.412;11.918;2023-07-30T11:18:39;41.90;62.40
43049;DHT22;28673;44.412;11.918;2023-07-30T11:21:13;41.80;62.60
43049;DHT22;28673;44.412;11.918;2023-07-30T11:23:41;41.60;62.30
43049;DHT22;28673;44.412;11.918;2023-07-30T11:26:09;41.50;62.80
43049;DHT22;28673;44.412;11.918;2023-07-30T11:28:37;41.50;62.90
43049;DHT22;28673;44.412;11.918;2023-07-30T11:31:05;41.60;62.80
43049;DHT22;28673;44.412;11.918;2023-07-30T11:33:36;41.90;62.40
43049;DHT22;28673;44.412;11.918;2023-07-30T11:36:06;42.00;62.10
43049;DHT22;28673;44.412;11.918;2023-07-30T11:38:33;42.10;61.90
43049;DHT22;28673;44.412;11.918;2023-07-30T11:40:59;42.20;62.10
43049;DHT22;28673;44.412;11.918;2023-07-30T11:43:25;42.30;61.60
43049;DHT22;28673;44.412;11.918;2023-07-30T11:46:11;42.50;61.90
43049;DHT22;28673;44.412;11.918;2023-07-30T11:48:39;42.80;61.20
43049;DHT22;28673;44.412;11.918;2023-07-30T11:51:07;43.10;61.30
43049;DHT22;28673;44.412;11.918;2023-07-30T11:53:56;43.30;60.60
43049;DHT22;28673;44.412;11.918;2023-07-30T11:56:29;43.50;60.80
43049;DHT22;28673;44.412;11.918;2023-07-30T11:59:00;43.70;61.10
43049;DHT22;28673;44.412;11.918;2023-07-30T12:01:28;43.80;60.50
43049;DHT22;28673;44.412;11.918;2023-07-30T12:03:58;44.00;60.00
43049;DHT22;28673;44.412;11.918;2023-07-30T12:06:47;44.10;59.50
43049;DHT22;28673;44.412;11.918;2023-07-30T12:09:17;43.90;59.90
43049;DHT22;28673;44.412;11.918;2023-07-30T12:11:55;43.70;60.20
43049;DHT22;28673;44.412;11.918;2023-07-30T12:14:26;43.60;60.10
43049;DHT22;28673;44.412;11.918;2023-07-30T12:16:56;43.30;60.30
43049;DHT22;28673;44.412;11.918;2023-07-30T12:19:22;43.20;60.90
43049;DHT22;28673;44.412;11.918;2023-07-30T12:21:48;43.10;60.80
43049;DHT22;28673;44.412;11.918;2023-07-30T12:24:14;43.30;60.50
43049;DHT22;28673;44.412;11.918;2023-07-30T12:26:40;43.30;60.00
43049;DHT22;28673;44.412;11.918;2023-07-30T12:29:06;43.20;59.80
43049;DHT22;28673;44.412;11.918;2023-07-30T12:31:32;43.00;59.90
43049;DHT22;28673;44.412;11.918;2023-07-30T12:33:58;43.00;61.00
43049;DHT22;28673;44.412;11.918;2023-07-30T12:36:24;43.00;60.80
43049;DHT22;28673;44.412;11.918;2023-07-30T12:38:53;43.20;60.10
43049;DHT22;28673;44.412;11.918;2023-07-30T12:41:21;43.20;60.00
43049;DHT22;28673;44.412;11.918;2023-07-30T12:43:55;43.50;60.00
43049;DHT22;28673;44.412;11.918;2023-07-30T12:46:24;43.60;59.70
43049;DHT22;28673;44.412;11.918;2023-07-30T12:48:55;43.70;59.60
43049;DHT22;28673;44.412;11.918;2023-07-30T12:51:22;43.80;59.50
43049;DHT22;28673;44.412;11.918;2023-07-30T12:53:48;44.00;59.00
43049;DHT22;28673;44.412;11.918;2023-07-30T12:56:14;44.20;59.00
43049;DHT22;28673;44.412;11.918;2023-07-30T12:58:41;44.20;58.50
43049;DHT22;28673;44.412;11.918;2023-07-30T13:01:07;44.10;58.40
43049;DHT22;28673;44.412;11.918;2023-07-30T13:03:32;44.00;58.70
43049;DHT22;28673;44.412;11.918;2023-07-30T13:05:59;44.00;58.70
43049;DHT22;28673;44.412;11.918;2023-07-30T13:08:24;44.00;58.70
43049;DHT22;28673;44.412;11.918;2023-07-30T13:10:50;44.10;58.70
43049;DHT22;28673;44.412;11.918;2023-07-30T13:13:16;44.20;58.30
43049;DHT22;28673;44.412;11.918;2023-07-30T13:15:42;44.30;58.20
43049;DHT22;28673;44.412;11.918;2023-07-30T13:18:08;44.30;58.30
43049;DHT22;28673;44.412;11.918;2023-07-30T13:20:35;44.30;58.60
43049;DHT22;28673;44.412;11.918;2023-07-30T13:23:05;44.40;58.70
43049;DHT22;28673;44.412;11.918;2023-07-30T13:25:31;44.60;58.30
43049;DHT22;28673;44.412;11.918;2023-07-30T13:27:57;44.60;58.30
43049;DHT22;28673;44.412;11.918;2023-07-30T13:30:22;44.50;58.30
43049;DHT22;28673;44.412;11.918;2023-07-30T13:32:48;44.20;58.30
43049;DHT22;28673;44.412;11.918;2023-07-30T13:35:14;44.00;58.90
43049;DHT22;28673;44.412;11.918;2023-07-30T13:37:40;43.50;58.50
43049;DHT22;28673;44.412;11.918;2023-07-30T13:40:07;43.50;58.90
43049;DHT22;28673;44.412;11.918;2023-07-30T13:42:33;43.60;58.80
43049;DHT22;28673;44.412;11.918;2023-07-30T13:44:58;43.70;58.90
43049;DHT22;28673;44.412;11.918;2023-07-30T13:47:25;43.60;58.90
43049;DHT22;28673;44.412;11.918;2023-07-30T13:49:51;43.40;58.90
43049;DHT22;28673;44.412;11.918;2023-07-30T13:52:17;43.40;59.10
43049;DHT22;28673;44.412;11.918;2023-07-30T13:54:43;43.50;58.90
43049;DHT22;28673;44.412;11.918;2023-07-30T13:57:11;43.50;59.00
43049;DHT22;28673;44.412;11.918;2023-07-30T13:59:37;43.30;58.30
43049;DHT22;28673;44.412;11.918;2023-07-30T14:02:05;43.00;58.30
43049;DHT22;28673;44.412;11.918;2023-07-30T14:04:31;42.90;59.20
43049;DHT22;28673;44.412;11.918;2023-07-30T14:06:57;42.80;58.60
43049;DHT22;28673;44.412;11.918;2023-07-30T14:09:23;42.70;59.10
43049;DHT22;28673;44.412;11.918;2023-07-30T14:11:50;42.60;59.10
43049;DHT22;28673;44.412;11.918;2023-07-30T14:14:17;42.70;59.20
43049;DHT22;28673;44.412;11.918;2023-07-30T14:16:43;42.80;59.30
43049;DHT22;28673;44.412;11.918;2023-07-30T14:19:09;43.00;59.40
43049;DHT22;28673;44.412;11.918;2023-07-30T14:21:37;43.00;58.70
43049;DHT22;28673;44.412;11.918;2023-07-30T14:24:05;43.20;59.20
43049;DHT22;28673;44.412;11.918;2023-07-30T14:26:31;42.90;60.10
43049;DHT22;28673;44.412;11.918;2023-07-30T14:28:58;42.50;61.20
43049;DHT22;28673;44.412;11.918;2023-07-30T14:31:23;42.20;61.70
43049;DHT22;28673;44.412;11.918;2023-07-30T14:33:49;41.90;62.20
43049;DHT22;28673;44.412;11.918;2023-07-30T14:36:15;41.60;62.60
43049;DHT22;28673;44.412;11.918;2023-07-30T14:38:41;41.20;62.80
43049;DHT22;28673;44.412;11.918;2023-07-30T14:41:08;40.80;63.40
43049;DHT22;28673;44.412;11.918;2023-07-30T14:43:34;40.40;63.90
43049;DHT22;28673;44.412;11.918;2023-07-30T14:46:00;40.00;64.90
43049;DHT22;28673;44.412;11.918;2023-07-30T14:48:26;39.80;65.60
43049;DHT22;28673;44.412;11.918;2023-07-30T14:50:52;39.70;65.70
43049;DHT22;28673;44.412;11.918;2023-07-30T14:53:18;39.60;65.70
43049;DHT22;28673;44.412;11.918;2023-07-30T14:55:44;39.60;65.40
43049;DHT22;28673;44.412;11.918;2023-07-30T14:58:11;39.40;65.30
43049;DHT22;28673;44.412;11.918;2023-07-30T15:00:37;39.40;65.30
43049;DHT22;28673;44.412;11.918;2023-07-30T15:03:03;39.40;65.10
43049;DHT22;28673;44.412;11.918;2023-07-30T15:05:30;39.70;65.80
43049;DHT22;28673;44.412;11.918;2023-07-30T15:07:56;39.80;65.90
43049;DHT22;28673;44.412;11.918;2023-07-30T15:10:22;40.00;65.90
43049;DHT22;28673;44.412;11.918;2023-07-30T15:12:48;40.00;65.60
43049;DHT22;28673;44.412;11.918;2023-07-30T15:15:14;40.00;65.70
43049;DHT22;28673;44.412;11.918;2023-07-30T15:17:40;39.70;65.70
43049;DHT22;28673;44.412;11.918;2023-07-30T15:20:06;39.60;66.10
43049;DHT22;28673;44.412;11.918;2023-07-30T15:22:32;39.30;66.10
43049;DHT22;28673;44.412;11.918;2023-07-30T15:24:58;39.00;66.40